Texas Creek, Colorado
Current Conditions -  °F | °C
As of 10:55 AM on Saturday 22 Nov 2014 (Local Time) from K1V6 Reporting Station
Clear Clear  
Wind Chill: 61°   Ceiling: Unl
Heat Index: 61°   Visibility: 10mi
Dew Point: 18°   Wind: 26mph
Humidity: 19%   Direction: 280°W
Pressure: 29.76"   Gusts: 31mph
Location:  38.3575°N, 105.49°W
Report Text: K1V6 221755Z AUTO 28023G27KT 10SM CLR 16/M08 A2976 RMK AO2
Loading
Personal Weather Stations






























Interactive Weather Map New forecast layout! Learn more

10-Day Weather Forecast

Advertisements
Track Severe Weather on mobile